Time;durP1;ratioP1;P1;durP2;ratioP2;P2;SDS_P1;SDS_P2;PMS_P1;PMS_P2;Temp;Humidity;BMP_temperature;BMP_pressure;BME280_temperature;BME280_humidity;BME280_pressure;Samples;Min_cycle;Max_cycle;Signal;HPM_P1;HPM_P2
2023/01/08 00:02:14;;;;;;;3.17;2.42;;;;;;;9.60;100.00;100300.19;5342140;27;20346;-84
2023/01/08 00:04:45;;;;;;;5.32;2.50;;;;;;;9.60;100.00;100303.69;5344170;27;20019;-84
2023/01/08 00:07:35;;;;;;;;;;;;;;;;;;;;;
2023/01/08 00:10:07;;;;;;;4.13;2.60;;;;;;;9.59;100.00;100312.69;5333495;27;40391;-84
2023/01/08 00:12:38;;;;;;;4.00;2.53;;;;;;;9.56;100.00;100318.28;5339070;27;20023;-84
2023/01/08 00:15:10;;;;;;;4.72;2.95;;;;;;;9.60;100.00;100316.16;5341405;27;20046;-84
2023/01/08 00:17:41;;;;;;;6.63;2.97;;;;;;;9.68;100.00;100310.09;5340568;27;20028;-83
2023/01/08 00:20:13;;;;;;;6.15;2.88;;;;;;;9.70;100.00;100308.16;5341276;27;20047;-84
2023/01/08 00:22:47;;;;;;;5.22;2.92;;;;;;;9.70;100.00;100303.66;5359774;27;20023;-83
2023/01/08 00:25:19;;;;;;;5.22;2.60;;;;;;;9.74;100.00;100299.69;5359839;27;20028;-83
2023/01/08 00:27:50;;;;;;;8.55;2.90;;;;;;;9.74;100.00;100310.34;5360642;27;20024;-83
2023/01/08 00:30:21;;;;;;;4.82;2.83;;;;;;;9.73;100.00;100303.34;5358627;27;20034;-83
2023/01/08 00:32:53;;;;;;;6.18;2.47;;;;;;;9.77;100.00;100288.72;5356459;27;20467;-83
2023/01/08 00:35:24;;;;;;;6.70;2.53;;;;;;;9.77;100.00;100278.09;5361772;27;20019;-83
2023/01/08 00:37:55;;;;;;;5.82;2.95;;;;;;;9.79;100.00;100276.09;5360836;27;20019;-83
2023/01/08 00:40:27;;;;;;;3.75;2.30;;;;;;;9.78;100.00;100269.13;5357287;27;20453;-82
2023/01/08 00:42:58;;;;;;;5.00;2.22;;;;;;;9.80;100.00;100274.25;5370789;27;20046;-83
2023/01/08 00:45:29;;;;;;;5.10;2.50;;;;;;;9.79;100.00;100264.63;5384310;27;20015;-82
2023/01/08 00:48:01;;;;;;;4.60;2.80;;;;;;;9.79;100.00;100249.47;5374872;27;20074;-83
2023/01/08 00:50:32;;;;;;;7.43;3.05;;;;;;;9.80;100.00;100245.81;5365151;27;20023;-83
2023/01/08 00:53:03;;;;;;;3.55;2.47;;;;;;;9.80;100.00;100242.31;5363627;27;20111;-83
2023/01/08 00:55:35;;;;;;;4.05;2.47;;;;;;;9.80;100.00;100244.97;5361838;27;20023;-83
2023/01/08 00:58:06;;;;;;;4.43;2.35;;;;;;;9.76;100.00;100241.78;5362634;27;20058;-83
2023/01/08 01:00:37;;;;;;;5.05;2.72;;;;;;;9.78;100.00;100249.63;5363089;27;20050;-82
2023/01/08 01:03:09;;;;;;;5.82;2.65;;;;;;;9.78;100.00;100246.94;5358595;27;20023;-83
2023/01/08 01:05:40;;;;;;;5.75;3.10;;;;;;;9.80;100.00;100244.97;5364879;27;20023;-83
2023/01/08 01:08:11;;;;;;;7.10;2.92;;;;;;;9.82;100.00;100240.34;5363474;27;20043;-83
2023/01/08 01:10:43;;;;;;;6.10;3.42;;;;;;;9.81;100.00;100236.81;5367549;27;20030;-83
2023/01/08 01:13:14;;;;;;;6.03;3.25;;;;;;;9.79;100.00;100224.66;5367759;27;20039;-82
2023/01/08 01:15:56;;;;;;;4.63;2.90;;;;;;;9.80;100.00;100221.84;5372864;27;20011;-82
2023/01/08 01:18:28;;;;;;;5.38;2.80;;;;;;;9.79;100.00;100230.00;5370443;27;20047;-81
2023/01/08 01:20:59;;;;;;;6.85;3.08;;;;;;;9.83;100.00;100224.22;5344173;27;20071;-83
2023/01/08 01:23:30;;;;;;;7.07;3.03;;;;;;;9.84;100.00;100217.06;5346106;27;20059;-82
2023/01/08 01:26:02;;;;;;;4.57;2.63;;;;;;;9.83;100.00;100218.03;5355383;27;20032;-82
2023/01/08 01:28:33;;;;;;;5.28;3.08;;;;;;;9.84;100.00;100225.03;5359461;27;20063;-82
2023/01/08 01:31:05;;;;;;;6.55;3.20;;;;;;;9.83;100.00;100218.88;5351272;27;20027;-82
2023/01/08 01:33:36;;;;;;;8.45;3.42;;;;;;;9.88;100.00;100222.91;5342119;27;20065;-83
2023/01/08 01:36:10;;;;;;;6.47;2.78;;;;;;;9.92;100.00;100230.47;5320624;27;20050;-83
2023/01/08 01:38:47;;;;;;;5.65;2.72;;;;;;;9.95;100.00;100216.81;5333321;27;20051;-83
2023/01/08 01:41:24;;;;;;;5.93;3.00;;;;;;;9.94;100.00;100220.47;5341389;27;20027;-83
2023/01/08 01:44:19;;;;;;;5.22;2.97;;;;;;;9.87;100.00;100239.88;5340101;27;20561;-83
2023/01/08 01:46:50;;;;;;;4.65;3.05;;;;;;;9.77;100.00;100240.78;5336127;27;20028;-83
2023/01/08 01:49:22;;;;;;;9.13;3.65;;;;;;;9.66;100.00;100243.69;5335877;27;20026;-83
2023/01/08 01:52:01;;;;;;;6.60;3.28;;;;;;;9.59;100.00;100247.91;5336353;27;20035;-83
2023/01/08 01:54:34;;;;;;;6.18;3.10;;;;;;;9.51;100.00;100259.34;5334524;27;20027;-83
2023/01/08 01:57:07;;;;;;;5.38;2.63;;;;;;;9.36;100.00;100256.34;5338045;27;20105;-83
2023/01/08 01:59:39;;;;;;;6.43;2.80;;;;;;;9.23;100.00;100258.50;5337056;27;20119;-83
2023/01/08 02:02:10;;;;;;;5.68;2.60;;;;;;;9.12;100.00;100270.19;5338403;27;20024;-83
2023/01/08 02:04:42;;;;;;;3.40;2.03;;;;;;;8.96;100.00;100277.94;5340865;27;20104;-83
2023/01/08 02:07:42;;;;;;;5.53;2.08;;;;;;;8.79;100.00;100274.25;5340091;27;20059;-83
2023/01/08 02:10:24;;;;;;;5.80;1.63;;;;;;;8.57;100.00;100260.28;5329312;27;20036;-83
2023/01/08 02:13:03;;;;;;;3.70;1.55;;;;;;;8.34;100.00;100238.47;5340987;27;20020;-83
2023/01/08 02:16:12;;;;;;;6.55;2.15;;;;;;;8.14;100.00;100235.03;5335047;27;20031;-83
2023/01/08 02:18:49;;;;;;;4.63;1.30;;;;;;;7.99;100.00;100236.44;5318610;27;20044;-83
2023/01/08 02:21:30;;;;;;;5.30;1.13;;;;;;;7.85;100.00;100222.59;5334385;27;20107;-83
2023/01/08 02:24:23;;;;;;;4.45;1.00;;;;;;;7.78;100.00;100221.47;5334550;27;20031;-83
2023/01/08 02:26:58;;;;;;;6.47;1.00;;;;;;;7.68;100.00;100216.19;5333189;27;20374;-84
2023/01/08 02:29:31;;;;;;;4.40;1.05;;;;;;;7.65;100.00;100220.94;5335008;27;20031;-83
2023/01/08 02:32:03;;;;;;;5.88;1.38;;;;;;;7.59;100.00;100217.00;5337825;27;20111;-83
2023/01/08 02:34:35;;;;;;;2.95;1.30;;;;;;;7.59;100.00;100230.28;5312432;27;20377;-83
2023/01/08 02:37:08;;;;;;;7.35;1.20;;;;;;;7.56;100.00;100222.59;5314203;27;20042;-83
2023/01/08 02:40:01;;;;;;;4.55;1.20;;;;;;;7.54;100.00;100220.06;5339407;27;20432;-83
2023/01/08 02:42:51;;;;;;;3.33;0.90;;;;;;;7.55;100.00;100223.56;5340430;27;20096;-83
2023/01/08 02:45:45;;;;;;;6.63;1.20;;;;;;;7.51;100.00;100223.00;5334082;27;20024;-83
2023/01/08 02:48:35;;;;;;;2.83;1.00;;;;;;;7.50;100.00;100216.03;5338355;27;20027;-84
2023/01/08 02:51:12;;;;;;;5.28;1.00;;;;;;;7.45;100.00;100234.16;5333509;27;20032;-83
2023/01/08 02:53:47;;;;;;;4.68;1.02;;;;;;;7.44;100.00;100215.72;5313861;27;20024;-83
2023/01/08 02:56:33;;;;;;;6.13;0.90;;;;;;;7.42;100.00;100221.16;5336721;27;20077;-83
2023/01/08 02:59:06;;;;;;;6.15;1.23;;;;;;;7.37;100.00;100205.66;5343244;27;20024;-83
2023/01/08 03:01:40;;;;;;;6.43;1.10;;;;;;;7.35;100.00;100197.00;5339717;27;20195;-83
2023/01/08 03:04:16;;;;;;;7.82;1.38;;;;;;;7.32;100.00;100193.78;5344412;27;20159;-83
2023/01/08 03:06:48;;;;;;;9.52;1.80;;;;;;;7.30;100.00;100199.22;5343212;27;20115;-82
2023/01/08 03:09:20;;;;;;;5.07;1.10;;;;;;;7.30;100.00;100198.38;5333078;27;21826;-83
2023/01/08 03:11:59;;;;;;;5.82;1.30;;;;;;;7.30;100.00;100209.00;5341215;27;20034;-83
2023/01/08 03:14:45;;;;;;;4.88;1.30;;;;;;;7.28;100.00;100211.78;5339333;27;20011;-83
2023/01/08 03:17:20;;;;;;;4.53;1.13;;;;;;;7.22;100.00;100196.41;5326735;27;20031;-83
2023/01/08 03:20:24;;;;;;;4.47;0.98;;;;;;;7.24;100.00;100202.44;5340305;27;20040;-83
2023/01/08 03:22:59;;;;;;;5.13;1.30;;;;;;;7.24;100.00;100198.91;5273249;27;20039;-83
2023/01/08 03:25:30;;;;;;;5.55;1.30;;;;;;;7.25;100.00;100196.13;5342627;27;20031;-84
2023/01/08 03:28:08;;;;;;;5.30;1.40;;;;;;;7.23;100.00;100191.97;5344340;27;20035;-83
2023/01/08 03:30:42;;;;;;;5.88;1.23;;;;;;;7.19;100.00;100194.88;5317524;27;20035;-83
2023/01/08 03:33:15;;;;;;;8.05;1.35;;;;;;;7.23;100.00;100200.75;5318264;27;20019;-83
2023/01/08 03:35:50;;;;;;;5.10;1.30;;;;;;;7.21;100.00;100188.59;5339315;27;20024;-83
2023/01/08 03:38:26;;;;;;;7.50;1.60;;;;;;;7.21;100.00;100192.09;5337493;27;20468;-83
2023/01/08 03:41:02;;;;;;;4.13;1.20;;;;;;;7.22;100.00;100185.78;5341227;27;20077;-83
2023/01/08 03:43:34;;;;;;;4.90;1.10;;;;;;;7.20;100.00;100185.09;5333155;27;20099;-83
2023/01/08 03:46:11;;;;;;;9.23;1.40;;;;;;;7.20;100.00;100193.06;5341244;27;20489;-84
2023/01/08 03:48:44;;;;;;;9.65;1.40;;;;;;;7.18;100.00;100184.41;5338509;27;20462;-83
2023/01/08 03:51:17;;;;;;;8.15;1.60;;;;;;;7.22;100.00;100190.25;5340062;27;20038;-83
2023/01/08 03:53:53;;;;;;;5.82;1.27;;;;;;;7.22;100.00;100188.44;5341373;27;20118;-83
2023/01/08 03:56:24;;;;;;;7.03;1.40;;;;;;;7.24;100.00;100181.22;5328513;27;20107;-83
2023/01/08 03:58:56;;;;;;;8.25;1.48;;;;;;;7.24;100.00;100173.25;5344894;27;20039;-83
2023/01/08 04:01:27;;;;;;;6.68;1.35;;;;;;;7.27;100.00;100174.78;5350522;27;20121;-83
2023/01/08 04:03:58;;;;;;;5.97;1.50;;;;;;;7.32;100.00;100178.69;5354308;27;20380;-82
2023/01/08 04:06:29;;;;;;;6.82;1.58;;;;;;;7.30;100.00;100179.81;5339421;27;20610;-83
2023/01/08 04:09:02;;;;;;;8.80;1.85;;;;;;;7.27;100.00;100174.78;5341045;27;20034;-83
2023/01/08 04:11:33;;;;;;;7.47;1.42;;;;;;;7.24;100.00;100172.41;5319400;27;20027;-83
2023/01/08 04:14:05;;;;;;;9.00;1.90;;;;;;;7.18;100.00;100144.59;5336590;27;20054;-83
2023/01/08 04:16:36;;;;;;;8.07;1.77;;;;;;;7.15;100.00;100159.00;5340898;27;20118;-84
2023/01/08 04:19:10;;;;;;;6.72;1.63;;;;;;;7.16;100.00;100150.06;5343399;27;20055;-84
2023/01/08 04:21:41;;;;;;;6.65;3.08;;;;;;;7.19;100.00;100162.22;5340699;27;20073;-83
2023/01/08 04:24:12;;;;;;;8.65;2.53;;;;;;;7.24;100.00;100170.59;5341959;27;20020;-82
2023/01/08 04:26:44;;;;;;;8.05;1.63;;;;;;;7.28;100.00;100177.31;5344859;27;20016;-83
2023/01/08 04:29:16;;;;;;;9.23;2.28;;;;;;;7.28;100.00;100160.56;5344109;27;20023;-83
2023/01/08 04:31:47;;;;;;;6.13;1.85;;;;;;;7.35;100.00;100151.06;5342178;27;20052;-83
2023/01/08 04:34:19;;;;;;;6.72;1.83;;;;;;;7.32;100.00;100159.28;5341321;27;20064;-84
2023/01/08 04:36:51;;;;;;;4.75;1.77;;;;;;;7.34;100.00;100147.56;5335185;27;20596;-83
2023/01/08 04:39:22;;;;;;;5.90;2.03;;;;;;;7.32;100.00;100149.50;5341468;27;20030;-83
2023/01/08 04:41:53;;;;;;;6.78;1.90;;;;;;;7.32;100.00;100151.34;5319423;27;20034;-84
2023/01/08 04:44:24;;;;;;;5.68;1.80;;;;;;;7.30;100.00;100150.63;5337996;27;20028;-83
2023/01/08 04:46:56;;;;;;;5.88;1.77;;;;;;;7.27;100.00;100145.59;5335893;27;20052;-83
2023/01/08 04:49:27;;;;;;;6.22;2.20;;;;;;;7.26;100.00;100144.78;5326551;27;20024;-84
2023/01/08 04:51:58;;;;;;;8.77;1.77;;;;;;;7.24;100.00;100148.53;5327870;27;20028;-84
2023/01/08 04:54:29;;;;;;;5.25;2.00;;;;;;;7.24;100.00;100144.06;5346029;27;20032;-83
2023/01/08 04:57:01;;;;;;;4.65;1.67;;;;;;;7.24;100.00;100149.38;5341871;27;20040;-83
2023/01/08 04:59:32;;;;;;;13.98;2.33;;;;;;;7.24;100.00;100157.34;5355561;27;20020;-84
2023/01/08 05:02:04;;;;;;;6.20;1.65;;;;;;;7.26;100.00;100147.44;5353026;27;20024;-83
2023/01/08 05:04:35;;;;;;;5.10;2.40;;;;;;;7.26;100.00;100159.81;5349874;27;20484;-83
2023/01/08 05:07:06;;;;;;;2.97;1.73;;;;;;;7.24;100.00;100156.47;5339105;27;20118;-83
2023/01/08 05:09:38;;;;;;;7.63;1.73;;;;;;;7.22;100.00;100155.78;5341983;27;20023;-83
2023/01/08 05:12:09;;;;;;;4.00;1.45;;;;;;;7.17;100.00;100145.56;5338989;27;20024;-83
2023/01/08 05:14:40;;;;;;;3.47;1.13;;;;;;;7.22;100.00;100155.78;5315139;27;20055;-83
2023/01/08 05:17:12;;;;;;;6.65;1.50;;;;;;;7.20;100.00;100150.63;5329330;27;20468;-83
2023/01/08 05:19:43;;;;;;;6.57;1.33;;;;;;;7.17;100.00;100154.38;5329901;27;20132;-83
2023/01/08 05:22:14;;;;;;;3.70;1.20;;;;;;;7.14;100.00;100149.34;5339116;27;21816;-84
2023/01/08 05:24:45;;;;;;;3.88;1.20;;;;;;;7.11;100.00;100141.66;5332101;27;20031;-83
2023/01/08 05:27:17;;;;;;;2.83;1.35;;;;;;;7.13;100.00;100133.56;5337365;27;20043;-83
2023/01/08 05:29:49;;;;;;;2.83;1.00;;;;;;;7.13;100.00;100137.06;5335179;27;20084;-83
2023/01/08 05:32:21;;;;;;;5.57;1.33;;;;;;;7.12;100.00;100131.91;5339510;27;20023;-83
2023/01/08 05:34:52;;;;;;;4.97;1.30;;;;;;;7.12;100.00;100121.31;5342858;27;20078;-84
2023/01/08 05:37:23;;;;;;;5.25;1.20;;;;;;;7.16;100.00;100118.22;5337587;27;20024;-84
2023/01/08 05:39:55;;;;;;;2.25;1.00;;;;;;;7.14;100.00;100122.00;5347436;27;20077;-84
2023/01/08 05:42:26;;;;;;;4.70;1.27;;;;;;;7.15;100.00;100128.97;5342684;27;20077;-83
2023/01/08 05:44:57;;;;;;;5.55;1.10;;;;;;;7.03;100.00;100122.97;5344257;27;20425;-83
2023/01/08 05:47:30;;;;;;;3.22;1.10;;;;;;;6.96;100.00;100132.41;5345249;27;20035;-83
2023/01/08 05:50:01;;;;;;;5.18;1.20;;;;;;;6.94;100.00;100132.59;5339549;27;20032;-83
2023/01/08 05:52:32;;;;;;;3.95;0.93;;;;;;;6.88;100.00;100125.16;5338756;27;20031;-84
2023/01/08 05:55:04;;;;;;;7.65;1.40;;;;;;;6.84;100.00;100128.19;5335873;27;20028;-83
2023/01/08 05:57:36;;;;;;;6.72;1.85;;;;;;;6.88;100.00;100135.75;5337216;27;20034;-84
2023/01/08 06:00:09;;;;;;;5.18;1.23;;;;;;;6.77;100.00;100138.53;5334178;27;20120;-83
2023/01/08 06:02:44;;;;;;;5.75;1.30;;;;;;;6.71;100.00;100137.25;5320809;27;20036;-83
2023/01/08 06:05:16;;;;;;;2.95;1.13;;;;;;;6.67;100.00;100140.31;5333892;27;20369;-84
2023/01/08 06:07:47;;;;;;;5.55;1.10;;;;;;;6.65;100.00;100139.63;5311005;27;20032;-84
2023/01/08 06:10:18;;;;;;;4.72;1.30;;;;;;;6.58;100.00;100149.91;5337052;27;20107;-83
2023/01/08 06:12:50;;;;;;;6.13;1.48;;;;;;;6.49;100.00;100153.34;5333361;27;20339;-83
2023/01/08 06:15:21;;;;;;;6.78;1.58;;;;;;;6.53;100.00;100150.28;5311469;27;20354;-83
2023/01/08 06:17:52;;;;;;;9.70;1.30;;;;;;;6.40;100.00;100157.63;5335847;27;20808;-83
2023/01/08 06:20:24;;;;;;;5.88;1.30;;;;;;;6.40;100.00;100141.75;5335845;27;21612;-82
2023/01/08 06:22:55;;;;;;;6.15;1.30;;;;;;;6.32;100.00;100150.34;5337927;27;20361;-83
2023/01/08 06:25:27;;;;;;;7.72;1.40;;;;;;;6.31;100.00;100150.47;5336573;27;20019;-83
2023/01/08 06:27:58;;;;;;;5.88;1.10;;;;;;;6.19;100.00;100155.03;5340189;27;20184;-83
2023/01/08 06:30:30;;;;;;;5.78;1.52;;;;;;;6.14;100.00;100158.06;5343838;27;20330;-83
2023/01/08 06:33:01;;;;;;;7.55;1.60;;;;;;;6.15;100.00;100154.41;5341311;27;20016;-83
2023/01/08 06:35:32;;;;;;;6.30;1.88;;;;;;;6.11;100.00;100166.25;5355197;27;20050;-82
2023/01/08 06:38:04;;;;;;;10.32;1.40;;;;;;;6.10;100.00;100166.38;5353426;27;20016;-82
2023/01/08 06:40:35;;;;;;;6.18;1.23;;;;;;;6.03;100.00;100164.25;5336111;27;20036;-83
2023/01/08 06:43:07;;;;;;;8.00;1.35;;;;;;;5.98;100.00;100163.81;5350549;27;20023;-82
2023/01/08 06:45:38;;;;;;;7.82;1.45;;;;;;;6.01;100.00;100170.63;5342652;27;20090;-84
2023/01/08 06:48:09;;;;;;;7.80;1.88;;;;;;;5.97;100.00;100172.72;5342441;27;20042;-83
2023/01/08 06:50:41;;;;;;;6.25;1.38;;;;;;;5.98;100.00;100166.47;5336564;27;20032;-83
2023/01/08 06:53:12;;;;;;;10.68;2.08;;;;;;;5.89;100.00;100169.84;5342064;27;21619;-83
2023/01/08 06:55:43;;;;;;;8.25;1.58;;;;;;;5.91;100.00;100181.16;5339899;27;20074;-83
2023/01/08 06:58:14;;;;;;;11.00;1.67;;;;;;;5.86;100.00;100178.88;5339201;27;20525;-83
2023/01/08 07:00:46;;;;;;;8.10;1.75;;;;;;;5.86;100.00;100172.75;5334464;27;20102;-83
2023/01/08 07:03:17;;;;;;;11.18;1.92;;;;;;;5.90;100.00;100173.34;5339400;27;34614;-84
2023/01/08 07:05:49;;;;;;;8.93;1.85;;;;;;;5.91;100.00;100170.56;5343307;27;20484;-83
2023/01/08 07:08:21;;;;;;;8.48;2.70;;;;;;;5.91;100.00;100167.06;5339439;27;20123;-84
2023/01/08 07:10:52;;;;;;;9.13;1.77;;;;;;;5.92;100.00;100168.75;5342242;27;20115;-83
2023/01/08 07:13:24;;;;;;;7.85;2.08;;;;;;;5.97;100.00;100174.53;5339172;27;20035;-83
2023/01/08 07:15:55;;;;;;;11.75;2.58;;;;;;;6.01;100.00;100154.75;5335784;27;20127;-84
2023/01/08 07:18:26;;;;;;;13.15;2.22;;;;;;;6.03;100.00;100163.41;5341540;27;20056;-84
2023/01/08 07:20:58;;;;;;;13.85;2.42;;;;;;;6.02;100.00;100159.91;5335699;27;27740;-83
2023/01/08 07:23:29;;;;;;;7.47;1.77;;;;;;;6.03;100.00;100153.69;5336325;27;20520;-82
2023/01/08 07:26:06;;;;;;;8.32;2.10;;;;;;;6.06;100.00;100152.56;5333599;27;21045;-82
2023/01/08 07:28:37;;;;;;;8.77;2.03;;;;;;;6.09;100.00;100162.06;5334278;27;20036;-84
2023/01/08 07:31:09;;;;;;;10.93;2.13;;;;;;;6.06;100.00;100160.50;5339315;27;20042;-84
2023/01/08 07:33:40;;;;;;;9.48;1.92;;;;;;;6.04;100.00;100163.28;5340170;27;20490;-84
2023/01/08 07:36:11;;;;;;;9.50;2.10;;;;;;;6.05;100.00;100178.22;5335939;27;20484;-84
2023/01/08 07:38:43;;;;;;;7.65;1.85;;;;;;;6.04;100.00;100159.78;5334669;27;20028;-84
2023/01/08 07:41:15;;;;;;;11.60;2.42;;;;;;;5.97;100.00;100170.06;5338900;27;20051;-84
2023/01/08 07:43:47;;;;;;;10.52;2.72;;;;;;;5.91;100.00;100170.56;5341527;27;20109;-84
2023/01/08 07:46:21;;;;;;;11.07;1.50;;;;;;;5.84;100.00;100162.28;5317631;27;21114;-84
2023/01/08 07:48:54;;;;;;;9.80;1.98;;;;;;;5.76;100.00;100167.38;5335110;27;20035;-84
2023/01/08 07:51:25;;;;;;;8.27;2.65;;;;;;;5.76;100.00;100155.97;5337845;27;20054;-84
2023/01/08 07:53:57;;;;;;;11.10;2.03;;;;;;;5.78;100.00;100170.72;5337118;27;20474;-84
2023/01/08 07:56:28;;;;;;;15.23;3.17;;;;;;;5.82;100.00;100171.31;5338965;27;20077;-82
2023/01/08 07:58:59;;;;;;;10.60;2.20;;;;;;;5.81;100.00;100156.41;5337633;27;20157;-82
2023/01/08 08:01:30;;;;;;;9.48;1.60;;;;;;;5.79;100.00;100151.25;5334995;27;20024;-82
2023/01/08 08:04:02;;;;;;;11.82;2.15;;;;;;;5.84;100.00;100161.47;5336499;27;20499;-82
2023/01/08 08:06:33;;;;;;;15.70;2.03;;;;;;;5.87;100.00;100154.09;5333859;27;20050;-83
2023/01/08 08:09:04;;;;;;;9.82;2.17;;;;;;;5.93;100.00;100136.84;5338310;27;20031;-82
2023/01/08 08:11:37;;;;;;;10.23;2.33;;;;;;;6.05;100.00;100137.66;5335359;27;20046;-82
2023/01/08 08:14:08;;;;;;;8.77;2.15;;;;;;;6.12;100.00;100135.31;5338943;27;20050;-82
2023/01/08 08:16:39;;;;;;;7.35;1.80;;;;;;;6.25;100.00;100122.69;5340023;27;20028;-83
2023/01/08 08:19:11;;;;;;;10.30;1.95;;;;;;;6.35;100.00;100117.47;5334179;27;20035;-82
2023/01/08 08:21:42;;;;;;;11.25;2.20;;;;;;;6.48;100.00;100111.94;5335359;27;20490;-82
2023/01/08 08:24:14;;;;;;;8.55;1.60;;;;;;;6.65;100.00;100121.06;5332768;27;20053;-82
2023/01/08 08:26:46;;;;;;;8.93;1.50;;;;;;;6.71;100.00;100120.50;5337007;27;20024;-82
2023/01/08 08:29:17;;;;;;;7.55;1.40;;;;;;;6.80;100.00;100112.59;5339124;27;20044;-82
2023/01/08 08:31:48;;;;;;;6.32;1.52;;;;;;;6.79;100.00;100125.97;5336838;27;20029;-82
2023/01/08 08:34:21;;;;;;;10.70;2.85;;;;;;;6.80;100.00;100122.34;5337550;27;20031;-82
2023/01/08 08:36:52;;;;;;;9.13;1.73;;;;;;;6.75;100.00;100120.13;5331931;27;20028;-82
2023/01/08 08:39:24;;;;;;;10.68;1.77;;;;;;;6.75;100.00;100117.47;5330612;27;20035;-82
2023/01/08 08:41:55;;;;;;;11.77;2.28;;;;;;;6.71;100.00;100121.34;5318159;27;20058;-83
2023/01/08 08:44:26;;;;;;;10.75;1.90;;;;;;;6.74;100.00;100125.53;5342058;27;20028;-83
2023/01/08 08:46:57;;;;;;;10.73;1.90;;;;;;;6.73;100.00;100122.06;5346817;27;20032;-83
2023/01/08 08:49:29;;;;;;;8.30;1.70;;;;;;;6.79;100.00;100124.16;5343655;27;20042;-83
2023/01/08 08:52:00;;;;;;;8.80;1.92;;;;;;;6.82;100.00;100123.91;5346491;27;20154;-83
2023/01/08 08:54:31;;;;;;;9.02;2.03;;;;;;;6.85;100.00;100109.50;5344554;27;20032;-83
2023/01/08 08:57:03;;;;;;;10.73;1.83;;;;;;;6.81;100.00;100106.31;5343382;27;20038;-83
2023/01/08 08:59:34;;;;;;;9.20;2.10;;;;;;;6.76;100.00;100118.28;5335206;27;20027;-83
2023/01/08 09:02:06;;;;;;;11.57;2.50;;;;;;;6.70;100.00;100108.25;5330668;27;20020;-83
2023/01/08 09:04:37;;;;;;;13.18;2.22;;;;;;;6.65;100.00;100115.75;5347264;27;20019;-82
2023/01/08 09:07:08;;;;;;;7.43;1.98;;;;;;;6.58;100.00;100105.69;5349225;27;20028;-81
2023/01/08 09:09:40;;;;;;;9.38;1.92;;;;;;;6.54;100.00;100104.28;5350927;27;20022;-82
2023/01/08 09:12:11;;;;;;;12.60;2.00;;;;;;;6.50;100.00;100102.84;5358905;27;20020;-81
2023/01/08 09:14:42;;;;;;;8.73;2.60;;;;;;;6.48;100.00;100102.16;5342179;27;20372;-82
2023/01/08 09:17:13;;;;;;;7.70;2.47;;;;;;;6.48;100.00;100094.22;5339627;27;20024;-83
2023/01/08 09:19:45;;;;;;;12.45;1.95;;;;;;;6.51;100.00;100098.41;5354918;27;20488;-84
2023/01/08 09:22:17;;;;;;;11.07;2.50;;;;;;;6.55;100.00;100099.81;5348493;27;20448;-83
2023/01/08 09:24:48;;;;;;;10.02;1.88;;;;;;;6.56;100.00;100097.03;5344007;27;20747;-82
2023/01/08 09:27:19;;;;;;;7.50;1.77;;;;;;;6.59;100.00;100090.63;5345999;27;20036;-82
2023/01/08 09:29:50;;;;;;;12.68;2.03;;;;;;;6.63;100.00;100102.66;5346662;27;20016;-82
2023/01/08 09:32:22;;;;;;;9.38;2.10;;;;;;;6.70;100.00;100087.88;5342329;27;20031;-82
2023/01/08 09:34:53;;;;;;;12.20;2.78;;;;;;;6.74;100.00;100083.97;5316696;27;20050;-82
2023/01/08 09:37:24;;;;;;;10.38;2.25;;;;;;;6.78;100.00;100076.56;5336959;27;20021;-82
2023/01/08 09:39:56;;;;;;;14.80;2.90;;;;;;;6.81;100.00;100079.78;5341073;27;20422;-82
2023/01/08 09:42:28;;;;;;;10.18;1.90;;;;;;;6.86;100.00;100075.91;5335774;27;20076;-83
2023/01/08 09:45:02;;;;;;;8.85;2.08;;;;;;;6.93;100.00;100083.16;5332699;27;20106;-82
2023/01/08 09:47:38;;;;;;;10.40;2.45;;;;;;;6.97;100.00;100070.47;5334634;27;20031;-82
2023/01/08 09:50:12;;;;;;;7.57;1.80;;;;;;;6.99;100.00;100072.03;5344304;27;20016;-82
2023/01/08 09:52:44;;;;;;;7.95;2.25;;;;;;;7.05;100.00;100070.63;5337374;27;20033;-82
2023/01/08 09:55:16;;;;;;;8.27;2.22;;;;;;;7.07;100.00;100073.97;5326468;27;20142;-82
2023/01/08 09:57:48;;;;;;;11.05;2.30;;;;;;;7.12;100.00;100073.56;5345464;27;20461;-82
2023/01/08 10:00:25;;;;;;;8.82;1.75;;;;;;;7.14;100.00;100072.44;5339835;27;20017;-83
2023/01/08 10:02:57;;;;;;;9.63;2.08;;;;;;;7.19;100.00;100061.44;5308694;27;20476;-82
2023/01/08 10:05:29;;;;;;;9.63;1.90;;;;;;;7.26;100.00;100064.34;5336549;27;20032;-82
2023/01/08 10:08:00;;;;;;;7.45;2.00;;;;;;;7.28;100.00;100059.75;5343381;27;20032;-82
2023/01/08 10:10:32;;;;;;;7.22;1.90;;;;;;;7.39;100.00;100065.72;5345974;27;20448;-82
2023/01/08 10:13:03;;;;;;;9.32;2.03;;;;;;;7.50;100.00;100063.91;5338136;27;20389;-82
2023/01/08 10:15:34;;;;;;;8.50;1.90;;;;;;;7.56;100.00;100058.03;5330186;27;20517;-82
2023/01/08 10:18:18;;;;;;;6.72;1.90;;;;;;;7.68;100.00;100062.22;5331945;27;20059;-81
2023/01/08 10:20:50;;;;;;;9.10;2.28;;;;;;;7.82;100.00;100058.28;5328213;27;20370;-82
2023/01/08 10:23:24;;;;;;;5.45;1.90;;;;;;;7.95;100.00;100039.34;5332378;27;20078;-82
2023/01/08 10:26:01;;;;;;;5.15;1.52;;;;;;;7.98;100.00;100047.03;5338481;27;20714;-82
2023/01/08 10:28:34;;;;;;;6.70;1.50;;;;;;;8.02;100.00;100053.72;5318403;27;20046;-81
2023/01/08 10:31:15;;;;;;;6.72;1.38;;;;;;;8.07;100.00;100048.81;5335572;27;20051;-82
2023/01/08 10:33:48;;;;;;;5.15;1.27;;;;;;;8.20;100.00;100051.13;5316680;27;20055;-82
2023/01/08 10:36:23;;;;;;;5.22;1.60;;;;;;;8.37;100.00;100041.56;5336855;27;20028;-81
2023/01/08 10:39:02;;;;;;;5.50;1.55;;;;;;;8.42;100.00;100051.75;5339498;27;20392;-81
2023/01/08 10:41:38;;;;;;;5.05;1.30;;;;;;;8.50;100.00;100046.53;5337482;27;20032;-82
2023/01/08 10:44:16;;;;;;;5.00;1.08;;;;;;;8.60;100.00;100015.44;5327285;27;20129;-81
2023/01/08 10:46:51;;;;;;;4.10;1.33;;;;;;;8.65;100.00;100017.66;5334565;27;20035;-81
2023/01/08 10:49:32;;;;;;;4.07;1.00;;;;;;;8.78;100.00;100025.25;5344923;27;20081;-81
2023/01/08 10:52:04;;;;;;;3.15;0.75;;;;;;;8.82;100.00;100011.50;5345163;27;20034;-81
2023/01/08 10:54:38;;;;;;;2.45;0.80;;;;;;;8.87;100.00;100025.19;5343079;27;20024;-80
2023/01/08 10:57:21;;;;;;;3.15;1.10;;;;;;;9.02;100.00;100003.38;5323674;28;20020;-82
2023/01/08 10:59:54;;;;;;;4.68;0.90;;;;;;;9.18;100.00;100006.16;5340107;27;20047;-82
2023/01/08 11:02:32;;;;;;;1.70;0.70;;;;;;;9.19;100.00;99996.38;5323919;28;20023;-82
2023/01/08 11:05:07;;;;;;;1.98;0.95;;;;;;;9.49;100.00;100002.25;5328712;27;20023;-82
2023/01/08 11:07:39;;;;;;;2.90;0.80;;;;;;;9.78;100.00;99988.59;5344493;27;20050;-82
2023/01/08 11:10:29;;;;;;;2.45;0.80;;;;;;;10.38;100.00;99991.25;5345335;27;20012;-82
2023/01/08 11:13:03;;;;;;;3.50;0.77;;;;;;;12.40;100.00;99990.56;5325520;27;20016;-82
2023/01/08 11:15:39;;;;;;;0.68;0.30;;;;;;;14.55;100.00;99976.81;5336264;27;20573;-82
2023/01/08 11:18:18;;;;;;;0.87;0.40;;;;;;;15.75;100.00;99977.91;5345075;27;20053;-82
2023/01/08 11:20:51;;;;;;;1.08;0.40;;;;;;;15.89;100.00;99965.38;5349986;27;20357;-83
2023/01/08 11:23:25;;;;;;;2.03;1.00;;;;;;;16.63;100.00;99959.25;5349040;27;20094;-83
2023/01/08 11:26:10;;;;;;;1.73;0.40;;;;;;;17.12;100.00;99964.53;5347215;27;20107;-83
2023/01/08 11:29:03;;;;;;;1.05;0.43;;;;;;;16.78;100.00;99955.56;5347617;27;20484;-83
2023/01/08 11:32:18;;;;;;;0.47;0.30;;;;;;;17.54;100.00;99947.09;5347166;27;20032;-83
2023/01/08 11:34:58;;;;;;;1.98;0.45;;;;;;;17.69;100.00;99949.56;5324247;27;20043;-83
2023/01/08 11:37:34;;;;;;;0.90;0.50;;;;;;;17.11;100.00;99938.63;5326713;28;20438;-83
2023/01/08 11:40:30;;;;;;;0.88;0.43;;;;;;;17.50;100.00;99948.56;5326746;28;20145;-83
2023/01/08 11:43:26;;;;;;;1.95;0.60;;;;;;;17.58;100.00;99934.00;5327976;28;20028;-82
2023/01/08 11:46:12;;;;;;;2.97;1.15;;;;;;;17.09;100.00;99938.00;5329033;28;20450;-83
2023/01/08 11:49:05;;;;;;;1.67;0.63;;;;;;;16.67;100.00;99921.16;5345107;28;20078;-81
2023/01/08 11:52:30;;;;;;;1.45;0.90;;;;;;;15.95;100.00;99923.41;5346392;28;20290;-81
2023/01/08 11:55:10;;;;;;;2.53;1.13;;;;;;;17.10;100.00;99918.94;5238002;28;20130;-81
2023/01/08 11:57:53;;;;;;;2.90;1.02;;;;;;;16.58;100.00;99918.66;5326208;28;20032;-82